createdAt,value
2018-07-06T00:00:36.145Z,84.31
2018-07-06T00:03:23.055Z,84.12
2018-07-06T00:06:09.884Z,84.72
2018-07-06T00:08:57.394Z,83.92
2018-07-06T00:11:44.459Z,84.17
2018-07-06T00:14:31.583Z,84.48
2018-07-06T00:17:18.282Z,85.09
2018-07-06T00:20:05.709Z,85.04
2018-07-06T00:22:52.784Z,84.50
2018-07-06T00:25:40.382Z,85.00
2018-07-06T00:28:27.431Z,84.79
2018-07-06T00:31:09.261Z,85.00
2018-07-06T00:33:56.330Z,85.21
2018-07-06T00:36:43.532Z,85.70
2018-07-06T00:39:30.607Z,85.89
2018-07-06T00:42:17.692Z,86.39
2018-07-06T00:45:04.795Z,86.42
2018-07-06T00:47:52.136Z,86.67
2018-07-06T00:50:39.001Z,86.80
2018-07-06T00:53:25.939Z,86.79
2018-07-06T00:56:13.567Z,85.74
2018-07-06T00:59:00.606Z,85.11
2018-07-06T01:01:48.508Z,84.68
2018-07-06T01:04:35.338Z,84.45
2018-07-06T01:07:22.888Z,84.41
2018-07-06T01:10:09.967Z,84.91
2018-07-06T01:13:02.495Z,84.41
2018-07-06T01:15:49.526Z,85.00
2018-07-06T01:18:36.502Z,85.01
2018-07-06T01:21:24.097Z,85.18
2018-07-06T01:24:11.055Z,85.01
2018-07-06T01:26:58.266Z,85.24
2018-07-06T01:29:45.642Z,84.85
2018-07-06T01:32:32.859Z,84.68
2018-07-06T01:35:19.848Z,84.13
2018-07-06T01:38:07.225Z,83.60
2018-07-06T01:40:54.642Z,83.11
2018-07-06T01:43:41.854Z,82.69
2018-07-06T01:46:28.807Z,82.66
2018-07-06T01:49:15.769Z,83.08
2018-07-06T01:52:02.803Z,82.63
2018-07-06T01:54:49.817Z,82.24
2018-07-06T01:57:30.680Z,82.44
2018-07-06T02:00:17.850Z,82.82
2018-07-06T02:03:04.914Z,82.77
2018-07-06T02:05:51.926Z,82.85
2018-07-06T02:08:39.123Z,82.75
2018-07-06T02:11:26.403Z,82.56
2018-07-06T02:14:13.598Z,81.78
2018-07-06T02:17:00.759Z,81.93
2018-07-06T02:19:47.712Z,81.74
2018-07-06T02:22:34.861Z,81.61
2018-07-06T02:25:21.987Z,82.13
2018-07-06T02:28:09.512Z,82.64
2018-07-06T02:30:50.703Z,82.63
2018-07-06T02:33:38.121Z,82.98
2018-07-06T02:36:25.390Z,83.52
2018-07-06T02:39:12.322Z,83.93
2018-07-06T02:41:59.248Z,83.16
2018-07-06T02:44:46.074Z,82.65
2018-07-06T02:47:32.906Z,82.77
2018-07-06T02:50:19.972Z,84.18
2018-07-06T02:53:06.779Z,83.45
2018-07-06T02:55:54.115Z,84.36
2018-07-06T02:58:41.022Z,84.58
2018-07-06T03:01:28.487Z,84.40
2018-07-06T03:04:15.458Z,84.84
2018-07-06T03:07:02.752Z,85.12
2018-07-06T03:09:49.820Z,84.92
2018-07-06T03:12:36.896Z,84.74
2018-07-06T03:15:23.984Z,85.37
2018-07-06T03:18:11.931Z,85.96
2018-07-06T03:20:59.099Z,86.85
2018-07-06T03:23:45.916Z,87.34
2018-07-06T03:26:32.854Z,87.72
2018-07-06T03:29:19.797Z,88.80
2018-07-06T03:32:07.165Z,88.11
2018-07-06T03:34:54.055Z,87.98
2018-07-06T03:37:41.482Z,88.11
2018-07-06T03:40:28.646Z,87.36
2018-07-06T03:43:15.640Z,86.64
2018-07-06T03:46:02.637Z,86.59
2018-07-06T03:48:50.035Z,85.62
2018-07-06T03:51:37.505Z,86.19
2018-07-06T03:54:24.506Z,86.31
2018-07-06T03:57:11.866Z,86.82
2018-07-06T03:59:58.788Z,87.13
2018-07-06T04:02:45.663Z,87.05
2018-07-06T04:05:32.588Z,86.75
2018-07-06T04:08:13.380Z,87.62
2018-07-06T04:10:54.563Z,87.25
2018-07-06T04:13:41.550Z,87.32
2018-07-06T04:16:28.582Z,87.21
2018-07-06T04:19:15.737Z,87.06
2018-07-06T04:22:02.836Z,86.90
2018-07-06T04:24:50.055Z,86.53
2018-07-06T04:27:36.977Z,86.26
2018-07-06T04:30:24.004Z,84.78
2018-07-06T04:33:11.325Z,83.95
2018-07-06T04:35:58.315Z,83.99
2018-07-06T04:38:46.055Z,83.83
2018-07-06T04:41:26.921Z,83.06
2018-07-06T04:44:13.973Z,82.50
2018-07-06T04:47:00.777Z,82.57
2018-07-06T04:49:47.920Z,81.68
2018-07-06T04:52:34.994Z,81.80
2018-07-06T04:55:22.493Z,81.04
2018-07-06T04:58:10.504Z,80.68
2018-07-06T05:00:57.681Z,80.12
2018-07-06T05:03:45.402Z,79.91
2018-07-06T05:06:32.549Z,79.69
2018-07-06T05:09:20.503Z,78.85
2018-07-06T05:12:07.781Z,78.11
2018-07-06T05:14:54.882Z,78.33
2018-07-06T05:17:41.908Z,78.28
2018-07-06T05:20:23.021Z,77.96
2018-07-06T05:23:10.298Z,77.46
2018-07-06T05:25:57.378Z,77.66
2018-07-06T05:32:20.278Z,78.18
2018-07-06T05:35:07.364Z,78.18
2018-07-06T05:37:54.395Z,78.64
2018-07-06T05:40:41.421Z,78.34
2018-07-06T05:43:29.322Z,78.00
2018-07-06T05:46:16.423Z,79.04
2018-07-06T05:49:04.111Z,78.12
2018-07-06T05:51:51.192Z,77.67
2018-07-06T05:54:38.273Z,77.34
2018-07-06T05:57:25.872Z,76.05
2018-07-06T06:00:13.021Z,75.55
2018-07-06T06:03:00.926Z,75.54
2018-07-06T06:05:47.885Z,75.94
2018-07-06T06:11:55.723Z,73.55
2018-07-06T06:14:27.462Z,73.54
2018-07-06T06:17:00.058Z,73.16
2018-07-06T06:19:32.065Z,71.96
2018-07-06T06:22:03.258Z,70.49
2018-07-06T06:24:35.128Z,68.25
2018-07-06T06:27:06.488Z,64.40
2018-07-06T06:29:38.000Z,62.82
2018-07-06T06:32:11.060Z,60.12
2018-07-06T06:34:43.098Z,58.45
2018-07-06T06:37:14.740Z,55.71
2018-07-06T06:39:46.327Z,54.53
2018-07-06T06:42:18.684Z,54.38
2018-07-06T06:44:50.131Z,53.35
2018-07-06T06:47:21.362Z,53.09
2018-07-06T06:49:54.891Z,53.26
2018-07-06T06:52:26.528Z,51.48
2018-07-06T06:54:58.677Z,49.79
2018-07-06T06:57:30.354Z,48.99
2018-07-06T07:00:03.040Z,52.66
2018-07-06T07:02:34.953Z,49.25
2018-07-06T07:05:07.392Z,47.35
2018-07-06T07:07:39.423Z,46.40
2018-07-06T07:10:12.529Z,45.84
2018-07-06T07:12:44.399Z,43.36
2018-07-06T07:15:17.112Z,41.57
2018-07-06T07:17:49.125Z,41.18
2018-07-06T07:20:23.277Z,38.85
2018-07-06T07:22:56.095Z,37.29
2018-07-06T07:25:31.768Z,36.65
2018-07-06T07:28:11.516Z,35.69
2018-07-06T07:30:44.164Z,35.58
2018-07-06T07:33:15.619Z,37.87
2018-07-06T07:35:47.355Z,36.39
2018-07-06T07:38:18.642Z,35.10
2018-07-06T07:40:49.879Z,34.10
2018-07-06T07:43:21.121Z,33.82
2018-07-06T07:45:53.185Z,34.72
2018-07-06T07:48:25.816Z,33.39
2018-07-06T07:55:17.429Z,32.79
2018-07-06T07:57:49.530Z,31.75
2018-07-06T08:00:22.216Z,31.77
2018-07-06T08:02:54.812Z,31.72
2018-07-06T08:05:27.179Z,31.22
2018-07-06T08:07:58.712Z,30.31
2018-07-06T08:10:30.095Z,30.10
2018-07-06T08:13:01.395Z,30.56
2018-07-06T08:15:32.696Z,30.72
2018-07-06T08:18:03.821Z,29.99
2018-07-06T08:20:34.932Z,29.44
2018-07-06T08:23:07.175Z,28.82
2018-07-06T08:25:38.440Z,28.53
2018-07-06T08:28:09.785Z,28.97
2018-07-06T08:30:41.314Z,30.42
2018-07-06T08:33:12.725Z,29.67
2018-07-06T08:35:59.810Z,29.12
2018-07-06T08:38:30.834Z,28.48
2018-07-06T08:41:03.352Z,29.01
2018-07-06T08:43:37.036Z,28.27
2018-07-06T08:46:09.623Z,30.26
2018-07-06T08:48:41.498Z,28.49
2018-07-06T08:51:13.730Z,29.11
2018-07-06T08:53:44.326Z,29.12
2018-07-06T08:56:15.728Z,34.70
2018-07-06T08:58:47.184Z,33.31
2018-07-06T09:01:18.173Z,30.06
2018-07-06T09:03:49.442Z,28.37
2018-07-06T09:06:20.554Z,26.45
2018-07-06T09:08:52.748Z,27.69
2018-07-06T09:11:23.675Z,28.36
2018-07-06T09:13:54.809Z,29.83
2018-07-06T09:16:25.604Z,30.84
2018-07-06T09:18:56.549Z,32.63
2018-07-06T09:21:27.569Z,31.03
2018-07-06T09:23:59.987Z,27.82
2018-07-06T09:26:32.028Z,25.95
2018-07-06T09:29:03.848Z,24.76
2018-07-06T09:31:35.382Z,24.39
2018-07-06T09:34:06.798Z,23.58
2018-07-06T09:36:40.220Z,22.68
2018-07-06T09:39:13.508Z,22.24
2018-07-06T09:41:45.501Z,23.95
2018-07-06T09:44:17.968Z,24.81
2018-07-06T09:46:49.233Z,22.47
2018-07-06T09:49:20.702Z,23.85
2018-07-06T09:51:52.016Z,22.64
2018-07-06T09:54:23.801Z,23.30
2018-07-06T09:56:54.874Z,22.79
2018-07-06T09:59:26.851Z,22.52
2018-07-06T10:01:58.117Z,25.86
2018-07-06T10:04:29.467Z,28.94
2018-07-06T10:07:01.119Z,27.90
2018-07-06T10:09:32.222Z,27.60
2018-07-06T10:12:03.302Z,26.98
2018-07-06T10:14:34.822Z,29.52
2018-07-06T10:17:07.494Z,29.47
2018-07-06T10:19:38.910Z,28.73
2018-07-06T10:22:09.805Z,29.33
2018-07-06T10:24:43.020Z,26.51
2018-07-06T10:27:14.338Z,23.78
2018-07-06T10:29:57.571Z,23.21
2018-07-06T10:32:31.812Z,23.14
2018-07-06T10:35:04.803Z,22.03
2018-07-06T10:37:40.968Z,21.97
2018-07-06T10:41:35.473Z,22.85
2018-07-06T10:44:07.173Z,22.62
2018-07-06T10:46:40.712Z,22.31
2018-07-06T10:49:11.723Z,21.15
2018-07-06T10:51:43.760Z,20.31
2018-07-06T10:54:24.752Z,20.50
2018-07-06T10:57:28.189Z,20.65
2018-07-06T10:59:59.608Z,20.96
2018-07-06T11:02:31.095Z,23.63
2018-07-06T11:05:02.866Z,26.30
2018-07-06T11:07:37.024Z,28.51
2018-07-06T11:10:09.153Z,26.72
2018-07-06T11:12:40.262Z,24.40
2018-07-06T11:15:11.916Z,23.26
2018-07-06T11:17:43.240Z,23.81
2018-07-06T11:20:14.885Z,28.58
2018-07-06T11:22:47.569Z,26.37
2018-07-06T11:25:19.642Z,24.50
2018-07-06T11:27:50.562Z,24.15
2018-07-06T11:30:21.785Z,26.52
2018-07-06T11:32:52.848Z,23.63
2018-07-06T11:35:23.943Z,21.32
2018-07-06T11:37:55.284Z,20.67
2018-07-06T11:40:27.042Z,21.97
2018-07-06T11:42:59.810Z,20.80
2018-07-06T11:45:33.273Z,22.32
2018-07-06T11:48:05.894Z,24.44
2018-07-06T11:50:37.349Z,23.87
2018-07-06T11:53:09.664Z,25.46
2018-07-06T11:55:41.859Z,26.22
2018-07-06T11:58:14.705Z,30.40
2018-07-06T12:00:55.700Z,27.32
2018-07-06T12:03:27.780Z,27.14
2018-07-06T12:05:59.773Z,26.37
2018-07-06T12:08:31.833Z,24.65
2018-07-06T12:11:08.287Z,29.76
2018-07-06T12:13:39.815Z,28.04
2018-07-06T12:16:11.322Z,28.65
2018-07-06T12:18:43.162Z,30.06
2018-07-06T12:21:14.353Z,30.78
2018-07-06T12:23:45.795Z,29.34
2018-07-06T12:26:17.981Z,29.00
2018-07-06T12:28:48.915Z,28.69
2018-07-06T12:31:19.912Z,31.16
2018-07-06T12:33:51.113Z,29.07
2018-07-06T12:36:22.601Z,27.54
2018-07-06T12:38:53.754Z,27.72
2018-07-06T12:41:25.068Z,25.32
2018-07-06T12:43:56.628Z,25.76
2018-07-06T12:46:28.553Z,26.46
2018-07-06T12:48:59.503Z,27.64
2018-07-06T12:51:31.807Z,27.21
2018-07-06T12:54:03.670Z,27.36
2018-07-06T12:56:34.645Z,27.11
2018-07-06T12:59:09.410Z,26.78
2018-07-06T13:01:42.519Z,26.44
2018-07-06T13:04:15.170Z,23.70
2018-07-06T13:06:50.335Z,24.75
2018-07-06T13:09:21.715Z,24.23
2018-07-06T13:11:53.999Z,24.90
2018-07-06T13:14:26.996Z,23.60
2018-07-06T13:16:58.483Z,24.49
2018-07-06T13:19:30.253Z,23.67
2018-07-06T13:22:02.173Z,25.99
2018-07-06T13:24:33.962Z,28.23
2018-07-06T13:27:07.850Z,28.85
2018-07-06T13:29:43.747Z,29.72
2018-07-06T13:32:14.646Z,30.52
2018-07-06T13:34:49.156Z,29.97
2018-07-06T13:37:22.239Z,28.90
2018-07-06T13:39:56.928Z,28.52
2018-07-06T13:42:41.425Z,30.53
2018-07-06T13:45:15.056Z,31.78
2018-07-06T13:47:47.220Z,31.33
2018-07-06T13:52:07.268Z,31.21
2018-07-06T13:54:40.168Z,31.72
2018-07-06T13:57:11.344Z,32.61
2018-07-06T13:59:42.736Z,31.95
2018-07-06T14:02:14.617Z,31.78
2018-07-06T14:04:46.963Z,32.03
2018-07-06T14:07:19.306Z,30.36
2018-07-06T14:09:50.561Z,31.34
2018-07-06T14:12:22.722Z,31.28
2018-07-06T14:14:55.111Z,32.29
2018-07-06T14:17:27.509Z,32.80
2018-07-06T14:19:59.812Z,33.58
2018-07-06T14:22:32.065Z,34.17
2018-07-06T14:25:03.407Z,35.56
2018-07-06T14:27:35.204Z,34.59
2018-07-06T14:30:06.538Z,35.66
2018-07-06T14:32:41.071Z,35.37
2018-07-06T14:35:12.608Z,36.13
2018-07-06T14:37:44.944Z,36.17
2018-07-06T14:40:16.166Z,36.13
2018-07-06T14:42:47.841Z,36.64
2018-07-06T14:45:20.019Z,36.46
2018-07-06T14:47:51.601Z,36.94
2018-07-06T14:50:22.887Z,37.12
2018-07-06T14:52:56.547Z,36.41
2018-07-06T14:55:30.145Z,35.10
2018-07-06T14:58:02.222Z,39.53
2018-07-06T15:00:33.442Z,41.22
2018-07-06T15:03:07.452Z,42.66
2018-07-06T15:05:40.487Z,45.02
2018-07-06T15:08:14.230Z,46.15
2018-07-06T15:10:45.757Z,46.25
2018-07-06T15:13:19.428Z,47.82
2018-07-06T15:15:51.490Z,48.94
2018-07-06T15:18:24.098Z,47.74
2018-07-06T15:20:54.822Z,48.43
2018-07-06T15:23:35.804Z,48.39
2018-07-06T15:26:10.255Z,47.66
2018-07-06T15:28:41.692Z,45.29
2018-07-06T15:31:12.809Z,45.43
2018-07-06T15:33:44.256Z,44.04
2018-07-06T15:36:16.769Z,43.34
2018-07-06T15:38:48.334Z,43.53
2018-07-06T15:41:19.519Z,43.91
2018-07-06T15:43:52.483Z,43.47
2018-07-06T15:46:24.410Z,42.64
2018-07-06T15:48:56.647Z,42.30
2018-07-06T15:51:29.589Z,43.39
2018-07-06T15:54:01.214Z,44.08
2018-07-06T15:56:32.338Z,44.17
2018-07-06T15:59:03.861Z,44.74
2018-07-06T16:01:34.911Z,45.96
2018-07-06T16:04:06.704Z,45.97
2018-07-06T16:06:38.337Z,45.03
2018-07-06T16:09:11.293Z,43.84
2018-07-06T16:11:42.340Z,43.35
2018-07-06T16:14:14.535Z,43.15
2018-07-06T16:16:45.698Z,43.00
2018-07-06T16:19:16.842Z,43.16
2018-07-06T16:21:48.942Z,44.40
2018-07-06T16:24:20.645Z,44.97
2018-07-06T16:26:54.647Z,44.97
2018-07-06T16:29:28.368Z,44.70
2018-07-06T16:31:59.448Z,45.56
2018-07-06T16:34:31.150Z,45.72
2018-07-06T16:37:14.437Z,46.55
2018-07-06T16:39:45.610Z,45.96
2018-07-06T16:42:17.626Z,45.17
2018-07-06T16:44:49.891Z,45.09
2018-07-06T16:47:21.486Z,45.47
2018-07-06T16:49:54.894Z,46.35
2018-07-06T16:52:30.309Z,45.87
2018-07-06T16:55:04.176Z,45.09
2018-07-06T16:57:36.210Z,45.45
2018-07-06T17:00:08.317Z,47.21
2018-07-06T17:02:43.337Z,48.75
2018-07-06T17:05:21.767Z,48.81
2018-07-06T17:07:53.695Z,50.51
2018-07-06T17:10:36.018Z,50.91
2018-07-06T17:13:10.260Z,52.36
2018-07-06T17:15:41.896Z,51.61
2018-07-06T17:18:16.892Z,51.25
2018-07-06T17:20:49.607Z,51.60
2018-07-06T17:23:22.230Z,52.81
2018-07-06T17:25:57.641Z,53.24
2018-07-06T17:28:29.247Z,54.60
2018-07-06T17:31:00.680Z,54.22
2018-07-06T17:33:33.442Z,54.15
2018-07-06T17:36:08.524Z,54.21
2018-07-06T17:38:41.429Z,53.94
2018-07-06T17:41:15.468Z,54.00
2018-07-06T17:43:47.790Z,53.05
2018-07-06T17:46:19.318Z,53.04
2018-07-06T17:48:53.509Z,53.15
2018-07-06T17:51:26.343Z,53.88
2018-07-06T17:54:00.833Z,54.88
2018-07-06T17:56:31.784Z,55.67
2018-07-06T17:59:03.568Z,54.49
2018-07-06T18:01:35.413Z,53.28
2018-07-06T18:04:07.162Z,53.86
2018-07-06T18:06:38.998Z,53.94
2018-07-06T18:09:12.679Z,54.34
2018-07-06T18:11:45.045Z,55.23
2018-07-06T18:14:16.645Z,55.22
2018-07-06T18:16:49.172Z,55.46
2018-07-06T18:19:20.266Z,55.94
2018-07-06T18:21:53.421Z,55.70
2018-07-06T18:24:26.867Z,56.21
2018-07-06T18:26:58.888Z,55.96
2018-07-06T18:29:31.411Z,56.12
2018-07-06T18:32:03.613Z,56.60
2018-07-06T18:34:35.815Z,57.24
2018-07-06T18:37:08.088Z,57.68
2018-07-06T18:39:41.894Z,59.44
2018-07-06T18:42:14.738Z,60.18
2018-07-06T18:44:46.480Z,61.30
2018-07-06T18:47:20.012Z,62.25
2018-07-06T18:49:51.370Z,63.06
2018-07-06T18:52:25.904Z,63.48
2018-07-06T18:54:58.587Z,64.29
2018-07-06T18:57:30.693Z,64.42
2018-07-06T19:00:04.039Z,65.42
2018-07-06T19:02:36.579Z,66.10
2018-07-06T19:05:10.331Z,66.21
2018-07-06T19:07:43.639Z,66.77
2018-07-06T19:10:16.111Z,66.50
2018-07-06T19:12:47.573Z,66.24
2018-07-06T19:15:19.936Z,67.03
2018-07-06T19:17:53.355Z,67.01
2018-07-06T19:20:26.802Z,67.69
2018-07-06T19:22:59.497Z,67.83
2018-07-06T19:25:31.539Z,67.61
2018-07-06T19:28:04.406Z,68.18
2018-07-06T19:30:37.954Z,68.54
2018-07-06T19:33:11.020Z,69.29
2018-07-06T19:35:44.298Z,69.65
2018-07-06T19:38:17.669Z,69.45
2018-07-06T19:40:50.974Z,68.38
2018-07-06T19:43:23.536Z,68.81
2018-07-06T19:45:56.935Z,69.09
2018-07-06T19:48:30.677Z,69.13
2018-07-06T19:53:46.482Z,69.07
2018-07-06T19:56:18.444Z,69.14
2018-07-06T19:58:52.243Z,69.29
2018-07-06T20:01:26.108Z,68.99
2018-07-06T20:03:59.072Z,69.51
2018-07-06T20:06:31.733Z,69.66
2018-07-06T20:09:05.753Z,70.29
2018-07-06T20:11:39.639Z,70.58
2018-07-06T20:14:12.277Z,71.15
2018-07-06T20:16:44.624Z,70.39
2018-07-06T20:19:22.348Z,69.81
2018-07-06T20:21:55.308Z,69.29
2018-07-06T20:24:28.411Z,69.69
2018-07-06T20:27:01.221Z,70.17
2018-07-06T20:29:34.500Z,70.23
2018-07-06T20:32:07.847Z,70.90
2018-07-06T20:34:40.688Z,70.23
2018-07-06T20:37:14.047Z,70.15
2018-07-06T20:39:49.680Z,70.69
2018-07-06T20:42:23.724Z,70.70
2018-07-06T20:44:56.525Z,70.36
2018-07-06T20:47:30.181Z,70.68
2018-07-06T20:50:02.900Z,70.74
2018-07-06T20:52:35.590Z,71.58
2018-07-06T20:55:07.105Z,71.28
2018-07-06T20:57:39.538Z,72.79
2018-07-06T21:00:11.518Z,73.92
2018-07-06T21:02:43.842Z,73.94
2018-07-06T21:05:17.107Z,74.00
2018-07-06T21:07:49.726Z,72.36
2018-07-06T21:10:22.367Z,72.31
2018-07-06T21:12:54.486Z,72.64
2018-07-06T21:15:26.542Z,71.87
2018-07-06T21:17:57.820Z,71.87
2018-07-06T21:20:30.274Z,72.97
2018-07-06T21:23:02.968Z,73.59
2018-07-06T21:25:33.811Z,73.56
2018-07-06T21:28:05.542Z,74.12
2018-07-06T21:30:36.468Z,73.71
2018-07-06T21:33:08.359Z,73.74
2018-07-06T21:35:39.354Z,74.61
2018-07-06T21:38:11.036Z,74.53
2018-07-06T21:40:42.781Z,74.67
2018-07-06T21:43:13.968Z,74.33
2018-07-06T21:45:44.973Z,73.98
2018-07-06T21:48:17.042Z,73.86
2018-07-06T21:50:49.647Z,74.02
2018-07-06T21:53:20.412Z,74.51
2018-07-06T21:55:52.186Z,74.41
2018-07-06T21:58:24.169Z,75.68
2018-07-06T22:00:55.435Z,76.55
2018-07-06T22:03:26.614Z,76.98
2018-07-06T22:05:57.555Z,77.33
2018-07-06T22:08:28.657Z,77.33
2018-07-06T22:11:00.248Z,77.42
2018-07-06T22:13:31.009Z,77.94
2018-07-06T22:16:02.845Z,77.98
2018-07-06T22:18:34.152Z,77.41
2018-07-06T22:21:05.489Z,76.01
2018-07-06T22:23:36.470Z,74.99
2018-07-06T22:26:08.101Z,75.41
2018-07-06T22:28:38.996Z,75.37
2018-07-06T22:31:10.012Z,74.44
2018-07-06T22:33:41.675Z,75.67
2018-07-06T22:36:13.635Z,75.00
2018-07-06T22:38:44.609Z,74.93
2018-07-06T22:41:15.625Z,74.62
2018-07-06T22:43:46.514Z,73.92
2018-07-06T22:46:17.331Z,74.32
2018-07-06T22:48:48.169Z,77.36
2018-07-06T22:51:19.158Z,77.34
2018-07-06T22:53:51.226Z,76.41
2018-07-06T22:56:22.859Z,75.86
2018-07-06T22:58:53.904Z,75.95
2018-07-06T23:01:25.093Z,76.61
2018-07-06T23:03:56.873Z,78.18
2018-07-06T23:06:27.885Z,78.65
2018-07-06T23:08:58.360Z,79.19
2018-07-06T23:11:29.257Z,80.04
2018-07-06T23:14:00.640Z,78.68
2018-07-06T23:16:31.813Z,78.07
2018-07-06T23:19:02.628Z,78.80
2018-07-06T23:21:34.612Z,80.56
2018-07-06T23:24:06.008Z,80.89
2018-07-06T23:26:37.199Z,81.30
2018-07-06T23:29:08.235Z,80.76
2018-07-06T23:31:39.153Z,81.22
2018-07-06T23:34:09.888Z,81.43
2018-07-06T23:36:40.833Z,81.54
2018-07-06T23:39:12.179Z,81.00
2018-07-06T23:41:43.837Z,81.43
2018-07-06T23:44:14.417Z,81.37
2018-07-06T23:46:44.680Z,81.78
2018-07-06T23:49:15.492Z,81.61
2018-07-06T23:51:45.964Z,81.77
2018-07-06T23:54:16.872Z,80.56
2018-07-06T23:56:48.107Z,79.45
2018-07-06T23:59:20.536Z,79.50
